sensor_id;sensor_type;location;lat;lon;timestamp;P1;durP1;ratioP1;P2;durP2;ratioP2
3149;SDS011;32503;47.748;8.960;2023-09-18T00:00:54;3.00;;;2.80;;
3149;SDS011;32503;47.748;8.960;2023-09-18T00:03:21;2.53;;;2.40;;
3149;SDS011;32503;47.748;8.960;2023-09-18T00:05:49;2.90;;;2.80;;
3149;SDS011;32503;47.748;8.960;2023-09-18T00:08:18;3.30;;;3.10;;
3149;SDS011;32503;47.748;8.960;2023-09-18T00:10:46;3.93;;;2.67;;
3149;SDS011;32503;47.748;8.960;2023-09-18T00:13:14;2.70;;;2.60;;
3149;SDS011;32503;47.748;8.960;2023-09-18T00:15:41;3.10;;;2.90;;
3149;SDS011;32503;47.748;8.960;2023-09-18T00:18:09;3.00;;;2.80;;
3149;SDS011;32503;47.748;8.960;2023-09-18T00:20:36;2.90;;;2.70;;
3149;SDS011;32503;47.748;8.960;2023-09-18T00:23:03;3.30;;;3.10;;
3149;SDS011;32503;47.748;8.960;2023-09-18T00:25:31;2.60;;;2.40;;
3149;SDS011;32503;47.748;8.960;2023-09-18T00:27:58;2.27;;;2.17;;
3149;SDS011;32503;47.748;8.960;2023-09-18T00:30:25;2.93;;;2.80;;
3149;SDS011;32503;47.748;8.960;2023-09-18T00:32:52;2.40;;;2.30;;
3149;SDS011;32503;47.748;8.960;2023-09-18T00:35:19;2.83;;;2.53;;
3149;SDS011;32503;47.748;8.960;2023-09-18T00:37:47;3.53;;;3.30;;
3149;SDS011;32503;47.748;8.960;2023-09-18T00:40:14;2.60;;;2.40;;
3149;SDS011;32503;47.748;8.960;2023-09-18T00:42:42;2.90;;;2.80;;
3149;SDS011;32503;47.748;8.960;2023-09-18T00:45:10;3.20;;;3.00;;
3149;SDS011;32503;47.748;8.960;2023-09-18T00:47:36;2.47;;;2.37;;
3149;SDS011;32503;47.748;8.960;2023-09-18T00:50:04;2.83;;;2.63;;
3149;SDS011;32503;47.748;8.960;2023-09-18T00:52:33;3.67;;;3.47;;
3149;SDS011;32503;47.748;8.960;2023-09-18T00:55:00;3.20;;;3.00;;
3149;SDS011;32503;47.748;8.960;2023-09-18T00:57:27;3.93;;;3.63;;
3149;SDS011;32503;47.748;8.960;2023-09-18T00:59:56;4.40;;;3.93;;
3149;SDS011;32503;47.748;8.960;2023-09-18T01:02:23;3.83;;;3.53;;
3149;SDS011;32503;47.748;8.960;2023-09-18T01:04:50;3.13;;;2.93;;
3149;SDS011;32503;47.748;8.960;2023-09-18T01:07:16;3.37;;;3.00;;
3149;SDS011;32503;47.748;8.960;2023-09-18T01:09:43;3.10;;;2.90;;
3149;SDS011;32503;47.748;8.960;2023-09-18T01:12:11;2.90;;;2.70;;
3149;SDS011;32503;47.748;8.960;2023-09-18T01:14:48;3.40;;;3.10;;
3149;SDS011;32503;47.748;8.960;2023-09-18T01:17:18;2.83;;;2.73;;
3149;SDS011;32503;47.748;8.960;2023-09-18T01:19:46;3.43;;;3.27;;
3149;SDS011;32503;47.748;8.960;2023-09-18T01:22:15;3.27;;;3.07;;
3149;SDS011;32503;47.748;8.960;2023-09-18T01:24:44;3.07;;;2.87;;
3149;SDS011;32503;47.748;8.960;2023-09-18T01:27:12;4.63;;;3.80;;
3149;SDS011;32503;47.748;8.960;2023-09-18T01:29:42;3.20;;;3.00;;
3149;SDS011;32503;47.748;8.960;2023-09-18T01:32:09;3.30;;;3.10;;
3149;SDS011;32503;47.748;8.960;2023-09-18T01:34:37;2.70;;;2.60;;
3149;SDS011;32503;47.748;8.960;2023-09-18T01:37:06;4.27;;;2.40;;
3149;SDS011;32503;47.748;8.960;2023-09-18T01:39:34;3.73;;;2.83;;
3149;SDS011;32503;47.748;8.960;2023-09-18T01:42:02;2.90;;;2.80;;
3149;SDS011;32503;47.748;8.960;2023-09-18T01:44:30;2.57;;;2.47;;
3149;SDS011;32503;47.748;8.960;2023-09-18T01:46:57;3.10;;;2.90;;
3149;SDS011;32503;47.748;8.960;2023-09-18T01:49:28;2.80;;;2.70;;
3149;SDS011;32503;47.748;8.960;2023-09-18T01:51:55;3.00;;;2.80;;
3149;SDS011;32503;47.748;8.960;2023-09-18T01:54:22;3.57;;;2.90;;
3149;SDS011;32503;47.748;8.960;2023-09-18T01:56:49;3.43;;;3.13;;
3149;SDS011;32503;47.748;8.960;2023-09-18T01:59:18;3.10;;;3.00;;
3149;SDS011;32503;47.748;8.960;2023-09-18T02:01:45;2.80;;;2.70;;
3149;SDS011;32503;47.748;8.960;2023-09-18T02:04:12;3.10;;;2.93;;
3149;SDS011;32503;47.748;8.960;2023-09-18T02:06:38;2.80;;;2.70;;
3149;SDS011;32503;47.748;8.960;2023-09-18T02:09:05;2.80;;;2.60;;
3149;SDS011;32503;47.748;8.960;2023-09-18T02:11:33;3.13;;;2.93;;
3149;SDS011;32503;47.748;8.960;2023-09-18T02:14:02;3.10;;;2.93;;
3149;SDS011;32503;47.748;8.960;2023-09-18T02:16:32;3.20;;;2.90;;
3149;SDS011;32503;47.748;8.960;2023-09-18T02:18:59;3.20;;;3.00;;
3149;SDS011;32503;47.748;8.960;2023-09-18T02:21:25;2.87;;;2.67;;
3149;SDS011;32503;47.748;8.960;2023-09-18T02:23:52;3.30;;;3.10;;
3149;SDS011;32503;47.748;8.960;2023-09-18T02:26:19;2.97;;;2.77;;
3149;SDS011;32503;47.748;8.960;2023-09-18T02:28:46;2.63;;;2.53;;
3149;SDS011;32503;47.748;8.960;2023-09-18T02:31:13;2.83;;;2.73;;
3149;SDS011;32503;47.748;8.960;2023-09-18T02:33:41;3.13;;;2.80;;
3149;SDS011;32503;47.748;8.960;2023-09-18T02:36:09;2.90;;;2.80;;
3149;SDS011;32503;47.748;8.960;2023-09-18T02:38:36;2.57;;;2.47;;
3149;SDS011;32503;47.748;8.960;2023-09-18T02:41:03;3.30;;;3.10;;
3149;SDS011;32503;47.748;8.960;2023-09-18T02:43:29;2.77;;;2.67;;
3149;SDS011;32503;47.748;8.960;2023-09-18T02:45:56;3.43;;;3.23;;
3149;SDS011;32503;47.748;8.960;2023-09-18T02:48:23;2.87;;;2.67;;
3149;SDS011;32503;47.748;8.960;2023-09-18T02:50:51;3.40;;;3.20;;
3149;SDS011;32503;47.748;8.960;2023-09-18T02:53:19;3.00;;;2.90;;
3149;SDS011;32503;47.748;8.960;2023-09-18T02:55:47;3.43;;;3.13;;
3149;SDS011;32503;47.748;8.960;2023-09-18T02:58:14;2.97;;;2.73;;
3149;SDS011;32503;47.748;8.960;2023-09-18T03:00:41;3.63;;;3.43;;
3149;SDS011;32503;47.748;8.960;2023-09-18T03:03:09;3.20;;;3.00;;
3149;SDS011;32503;47.748;8.960;2023-09-18T03:05:36;2.83;;;2.63;;
3149;SDS011;32503;47.748;8.960;2023-09-18T03:08:05;4.17;;;3.97;;
3149;SDS011;32503;47.748;8.960;2023-09-18T03:10:32;3.70;;;3.50;;
3149;SDS011;32503;47.748;8.960;2023-09-18T03:12:59;5.07;;;3.63;;
3149;SDS011;32503;47.748;8.960;2023-09-18T03:15:26;3.43;;;3.00;;
3149;SDS011;32503;47.748;8.960;2023-09-18T03:17:53;2.57;;;2.47;;
3149;SDS011;32503;47.748;8.960;2023-09-18T03:20:21;5.10;;;3.70;;
3149;SDS011;32503;47.748;8.960;2023-09-18T03:22:49;5.20;;;3.10;;
3149;SDS011;32503;47.748;8.960;2023-09-18T03:25:18;3.80;;;3.60;;
3149;SDS011;32503;47.748;8.960;2023-09-18T03:27:44;3.90;;;3.50;;
3149;SDS011;32503;47.748;8.960;2023-09-18T03:30:11;4.30;;;3.17;;
3149;SDS011;32503;47.748;8.960;2023-09-18T03:32:40;3.17;;;2.97;;
3149;SDS011;32503;47.748;8.960;2023-09-18T03:35:07;3.77;;;3.57;;
3149;SDS011;32503;47.748;8.960;2023-09-18T03:37:40;3.10;;;3.00;;
3149;SDS011;32503;47.748;8.960;2023-09-18T03:40:08;3.20;;;3.00;;
3149;SDS011;32503;47.748;8.960;2023-09-18T03:42:37;3.30;;;3.10;;
3149;SDS011;32503;47.748;8.960;2023-09-18T03:45:05;3.10;;;2.90;;
3149;SDS011;32503;47.748;8.960;2023-09-18T03:47:33;2.93;;;2.83;;
3149;SDS011;32503;47.748;8.960;2023-09-18T03:50:00;3.03;;;2.83;;
3149;SDS011;32503;47.748;8.960;2023-09-18T03:52:27;2.90;;;2.70;;
3149;SDS011;32503;47.748;8.960;2023-09-18T03:54:54;3.33;;;3.13;;
3149;SDS011;32503;47.748;8.960;2023-09-18T03:57:21;2.83;;;2.73;;
3149;SDS011;32503;47.748;8.960;2023-09-18T03:59:49;4.20;;;2.77;;
3149;SDS011;32503;47.748;8.960;2023-09-18T04:02:16;3.63;;;3.33;;
3149;SDS011;32503;47.748;8.960;2023-09-18T04:04:43;3.10;;;3.00;;
3149;SDS011;32503;47.748;8.960;2023-09-18T04:07:10;3.90;;;3.60;;
3149;SDS011;32503;47.748;8.960;2023-09-18T04:09:41;3.10;;;2.90;;
3149;SDS011;32503;47.748;8.960;2023-09-18T04:12:08;2.80;;;2.60;;
3149;SDS011;32503;47.748;8.960;2023-09-18T04:14:35;3.73;;;3.50;;
3149;SDS011;32503;47.748;8.960;2023-09-18T04:17:03;3.17;;;2.97;;
3149;SDS011;32503;47.748;8.960;2023-09-18T04:19:30;3.07;;;2.87;;
3149;SDS011;32503;47.748;8.960;2023-09-18T04:21:57;4.10;;;3.60;;
3149;SDS011;32503;47.748;8.960;2023-09-18T04:24:24;3.50;;;3.20;;
3149;SDS011;32503;47.748;8.960;2023-09-18T04:26:52;3.50;;;3.30;;
3149;SDS011;32503;47.748;8.960;2023-09-18T04:29:20;2.63;;;2.43;;
3149;SDS011;32503;47.748;8.960;2023-09-18T04:31:46;3.27;;;3.07;;
3149;SDS011;32503;47.748;8.960;2023-09-18T04:34:15;3.33;;;3.13;;
3149;SDS011;32503;47.748;8.960;2023-09-18T04:36:42;3.30;;;3.10;;
3149;SDS011;32503;47.748;8.960;2023-09-18T04:39:09;4.33;;;2.90;;
3149;SDS011;32503;47.748;8.960;2023-09-18T04:41:36;2.90;;;2.73;;
3149;SDS011;32503;47.748;8.960;2023-09-18T04:44:04;3.57;;;3.27;;
3149;SDS011;32503;47.748;8.960;2023-09-18T04:46:32;5.00;;;3.40;;
3149;SDS011;32503;47.748;8.960;2023-09-18T04:48:59;5.67;;;3.70;;
3149;SDS011;32503;47.748;8.960;2023-09-18T04:51:30;3.67;;;2.70;;
3149;SDS011;32503;47.748;8.960;2023-09-18T04:53:57;4.23;;;3.83;;
3149;SDS011;32503;47.748;8.960;2023-09-18T04:56:24;2.83;;;2.63;;
3149;SDS011;32503;47.748;8.960;2023-09-18T04:58:52;4.13;;;3.93;;
3149;SDS011;32503;47.748;8.960;2023-09-18T05:01:19;3.57;;;3.27;;
3149;SDS011;32503;47.748;8.960;2023-09-18T05:03:46;3.33;;;3.13;;
3149;SDS011;32503;47.748;8.960;2023-09-18T05:06:13;3.63;;;3.20;;
3149;SDS011;32503;47.748;8.960;2023-09-18T05:08:42;3.60;;;3.30;;
3149;SDS011;32503;47.748;8.960;2023-09-18T05:11:09;3.53;;;2.97;;
3149;SDS011;32503;47.748;8.960;2023-09-18T05:13:36;2.70;;;2.60;;
3149;SDS011;32503;47.748;8.960;2023-09-18T05:16:03;5.20;;;3.63;;
3149;SDS011;32503;47.748;8.960;2023-09-18T05:18:30;3.90;;;3.70;;
3149;SDS011;32503;47.748;8.960;2023-09-18T05:20:57;3.07;;;2.97;;
3149;SDS011;32503;47.748;8.960;2023-09-18T05:23:24;2.90;;;2.70;;
3149;SDS011;32503;47.748;8.960;2023-09-18T05:25:53;4.23;;;3.80;;
3149;SDS011;32503;47.748;8.960;2023-09-18T05:28:19;3.03;;;2.83;;
3149;SDS011;32503;47.748;8.960;2023-09-18T05:30:46;3.73;;;3.53;;
3149;SDS011;32503;47.748;8.960;2023-09-18T05:33:13;2.97;;;2.77;;
3149;SDS011;32503;47.748;8.960;2023-09-18T05:35:40;3.27;;;3.17;;
3149;SDS011;32503;47.748;8.960;2023-09-18T05:38:08;3.90;;;3.60;;
3149;SDS011;32503;47.748;8.960;2023-09-18T05:40:38;2.80;;;2.60;;
3149;SDS011;32503;47.748;8.960;2023-09-18T05:43:06;4.30;;;3.10;;
3149;SDS011;32503;47.748;8.960;2023-09-18T05:45:33;4.10;;;3.90;;
3149;SDS011;32503;47.748;8.960;2023-09-18T05:48:00;3.20;;;3.00;;
3149;SDS011;32503;47.748;8.960;2023-09-18T05:50:29;3.10;;;2.90;;
3149;SDS011;32503;47.748;8.960;2023-09-18T05:52:56;3.43;;;3.20;;
3149;SDS011;32503;47.748;8.960;2023-09-18T05:55:25;2.80;;;2.60;;
3149;SDS011;32503;47.748;8.960;2023-09-18T05:57:52;3.30;;;3.00;;
3149;SDS011;32503;47.748;8.960;2023-09-18T06:00:20;3.13;;;3.03;;
3149;SDS011;32503;47.748;8.960;2023-09-18T06:02:47;2.90;;;2.70;;
3149;SDS011;32503;47.748;8.960;2023-09-18T06:05:16;3.33;;;3.13;;
3149;SDS011;32503;47.748;8.960;2023-09-18T06:07:46;3.17;;;2.97;;
3149;SDS011;32503;47.748;8.960;2023-09-18T06:10:13;3.77;;;3.47;;
3149;SDS011;32503;47.748;8.960;2023-09-18T06:12:40;2.67;;;2.47;;
3149;SDS011;32503;47.748;8.960;2023-09-18T06:15:07;2.97;;;2.77;;
3149;SDS011;32503;47.748;8.960;2023-09-18T06:17:37;3.47;;;3.27;;
3149;SDS011;32503;47.748;8.960;2023-09-18T06:20:06;3.10;;;2.90;;
3149;SDS011;32503;47.748;8.960;2023-09-18T06:22:35;3.37;;;3.17;;
3149;SDS011;32503;47.748;8.960;2023-09-18T06:25:03;4.20;;;3.20;;
3149;SDS011;32503;47.748;8.960;2023-09-18T06:27:30;3.37;;;3.17;;
3149;SDS011;32503;47.748;8.960;2023-09-18T06:29:58;8.43;;;3.30;;
3149;SDS011;32503;47.748;8.960;2023-09-18T06:32:25;4.13;;;3.17;;
3149;SDS011;32503;47.748;8.960;2023-09-18T06:34:54;3.27;;;3.00;;
3149;SDS011;32503;47.748;8.960;2023-09-18T06:37:22;3.13;;;2.90;;
3149;SDS011;32503;47.748;8.960;2023-09-18T06:39:49;2.90;;;2.70;;
3149;SDS011;32503;47.748;8.960;2023-09-18T06:42:16;4.17;;;3.80;;
3149;SDS011;32503;47.748;8.960;2023-09-18T06:44:43;2.57;;;2.47;;
3149;SDS011;32503;47.748;8.960;2023-09-18T06:47:10;2.57;;;2.27;;
3149;SDS011;32503;47.748;8.960;2023-09-18T06:49:37;3.17;;;2.40;;
3149;SDS011;32503;47.748;8.960;2023-09-18T06:52:05;2.50;;;2.30;;
3149;SDS011;32503;47.748;8.960;2023-09-18T06:54:32;5.53;;;2.63;;
3149;SDS011;32503;47.748;8.960;2023-09-18T06:56:59;3.40;;;3.20;;
3149;SDS011;32503;47.748;8.960;2023-09-18T06:59:26;3.10;;;2.10;;
3149;SDS011;32503;47.748;8.960;2023-09-18T07:01:54;3.43;;;2.00;;
3149;SDS011;32503;47.748;8.960;2023-09-18T07:04:22;2.80;;;2.30;;
3149;SDS011;32503;47.748;8.960;2023-09-18T07:06:48;3.07;;;1.77;;
3149;SDS011;32503;47.748;8.960;2023-09-18T07:09:18;3.33;;;1.57;;
3149;SDS011;32503;47.748;8.960;2023-09-18T07:11:48;3.90;;;1.47;;
3149;SDS011;32503;47.748;8.960;2023-09-18T07:14:14;2.93;;;1.33;;
3149;SDS011;32503;47.748;8.960;2023-09-18T07:16:41;2.20;;;1.53;;
3149;SDS011;32503;47.748;8.960;2023-09-18T07:19:08;2.10;;;1.40;;
3149;SDS011;32503;47.748;8.960;2023-09-18T07:21:37;5.70;;;1.97;;
3149;SDS011;32503;47.748;8.960;2023-09-18T07:24:05;1.37;;;1.10;;
3149;SDS011;32503;47.748;8.960;2023-09-18T07:26:35;2.30;;;1.30;;
3149;SDS011;32503;47.748;8.960;2023-09-18T07:29:01;2.27;;;1.97;;
3149;SDS011;32503;47.748;8.960;2023-09-18T07:31:28;2.30;;;1.37;;
3149;SDS011;32503;47.748;8.960;2023-09-18T07:33:55;4.70;;;1.30;;
3149;SDS011;32503;47.748;8.960;2023-09-18T07:36:22;1.63;;;1.00;;
3149;SDS011;32503;47.748;8.960;2023-09-18T07:38:49;2.07;;;1.30;;
3149;SDS011;32503;47.748;8.960;2023-09-18T07:41:16;1.67;;;1.30;;
3149;SDS011;32503;47.748;8.960;2023-09-18T07:43:45;1.13;;;1.00;;
3149;SDS011;32503;47.748;8.960;2023-09-18T07:46:12;2.07;;;1.40;;
3149;SDS011;32503;47.748;8.960;2023-09-18T07:48:39;1.47;;;1.37;;
3149;SDS011;32503;47.748;8.960;2023-09-18T07:51:06;1.10;;;1.00;;
3149;SDS011;32503;47.748;8.960;2023-09-18T07:53:32;1.10;;;0.90;;
3149;SDS011;32503;47.748;8.960;2023-09-18T07:55:59;3.00;;;1.50;;
3149;SDS011;32503;47.748;8.960;2023-09-18T07:58:29;1.97;;;1.00;;
3149;SDS011;32503;47.748;8.960;2023-09-18T08:00:57;3.47;;;1.50;;
3149;SDS011;32503;47.748;8.960;2023-09-18T08:03:24;3.90;;;1.40;;
3149;SDS011;32503;47.748;8.960;2023-09-18T08:05:51;2.30;;;1.07;;
3149;SDS011;32503;47.748;8.960;2023-09-18T08:08:19;3.50;;;3.30;;
3149;SDS011;32503;47.748;8.960;2023-09-18T08:10:47;1.73;;;1.37;;
3149;SDS011;32503;47.748;8.960;2023-09-18T08:13:13;1.00;;;0.90;;
3149;SDS011;32503;47.748;8.960;2023-09-18T08:15:40;1.57;;;0.90;;
3149;SDS011;32503;47.748;8.960;2023-09-18T08:18:10;1.30;;;1.20;;
3149;SDS011;32503;47.748;8.960;2023-09-18T08:20:39;4.70;;;1.07;;
3149;SDS011;32503;47.748;8.960;2023-09-18T08:23:07;1.83;;;1.07;;
3149;SDS011;32503;47.748;8.960;2023-09-18T08:25:34;2.20;;;1.30;;
3149;SDS011;32503;47.748;8.960;2023-09-18T08:28:02;1.00;;;0.90;;
3149;SDS011;32503;47.748;8.960;2023-09-18T08:30:29;0.90;;;0.90;;
3149;SDS011;32503;47.748;8.960;2023-09-18T08:32:56;1.67;;;1.10;;
3149;SDS011;32503;47.748;8.960;2023-09-18T08:35:24;1.00;;;0.90;;
3149;SDS011;32503;47.748;8.960;2023-09-18T08:37:54;1.20;;;1.10;;
3149;SDS011;32503;47.748;8.960;2023-09-18T08:40:21;0.97;;;0.83;;
3149;SDS011;32503;47.748;8.960;2023-09-18T08:42:51;2.30;;;1.10;;
3149;SDS011;32503;47.748;8.960;2023-09-18T08:45:19;3.63;;;1.43;;
3149;SDS011;32503;47.748;8.960;2023-09-18T08:47:49;0.73;;;0.63;;
3149;SDS011;32503;47.748;8.960;2023-09-18T08:50:18;1.27;;;0.93;;
3149;SDS011;32503;47.748;8.960;2023-09-18T08:52:47;3.70;;;1.00;;
3149;SDS011;32503;47.748;8.960;2023-09-18T08:55:15;3.03;;;1.43;;
3149;SDS011;32503;47.748;8.960;2023-09-18T08:57:42;2.47;;;0.90;;
3149;SDS011;32503;47.748;8.960;2023-09-18T09:00:11;1.77;;;1.10;;
3149;SDS011;32503;47.748;8.960;2023-09-18T09:02:42;3.47;;;1.00;;
3149;SDS011;32503;47.748;8.960;2023-09-18T09:05:09;1.40;;;1.30;;
3149;SDS011;32503;47.748;8.960;2023-09-18T09:07:36;3.77;;;1.00;;
3149;SDS011;32503;47.748;8.960;2023-09-18T09:10:04;2.10;;;0.80;;
3149;SDS011;32503;47.748;8.960;2023-09-18T09:15:15;1.20;;;0.90;;
3149;SDS011;32503;47.748;8.960;2023-09-18T09:17:42;3.00;;;1.03;;
3149;SDS011;32503;47.748;8.960;2023-09-18T09:20:09;0.90;;;0.80;;
3149;SDS011;32503;47.748;8.960;2023-09-18T09:22:37;1.10;;;0.80;;
3149;SDS011;32503;47.748;8.960;2023-09-18T09:25:07;1.10;;;1.00;;
3149;SDS011;32503;47.748;8.960;2023-09-18T09:27:52;1.30;;;1.20;;
3149;SDS011;32503;47.748;8.960;2023-09-18T09:30:20;1.00;;;0.90;;
3149;SDS011;32503;47.748;8.960;2023-09-18T09:32:48;1.10;;;1.00;;
3149;SDS011;32503;47.748;8.960;2023-09-18T09:35:22;1.80;;;1.03;;
3149;SDS011;32503;47.748;8.960;2023-09-18T09:37:52;0.80;;;0.70;;
3149;SDS011;32503;47.748;8.960;2023-09-18T09:40:22;1.03;;;0.93;;
3149;SDS011;32503;47.748;8.960;2023-09-18T09:42:50;2.50;;;1.10;;
3149;SDS011;32503;47.748;8.960;2023-09-18T09:45:19;0.97;;;0.97;;
3149;SDS011;32503;47.748;8.960;2023-09-18T09:47:46;1.03;;;0.93;;
3149;SDS011;32503;47.748;8.960;2023-09-18T09:50:13;1.47;;;1.27;;
3149;SDS011;32503;47.748;8.960;2023-09-18T09:52:44;4.53;;;1.37;;
3149;SDS011;32503;47.748;8.960;2023-09-18T09:55:20;1.33;;;1.20;;
3149;SDS011;32503;47.748;8.960;2023-09-18T09:57:50;2.67;;;2.13;;
3149;SDS011;32503;47.748;8.960;2023-09-18T10:00:18;2.03;;;1.00;;
3149;SDS011;32503;47.748;8.960;2023-09-18T10:02:53;0.87;;;0.83;;
3149;SDS011;32503;47.748;8.960;2023-09-18T10:05:24;2.40;;;1.03;;
3149;SDS011;32503;47.748;8.960;2023-09-18T10:07:55;2.00;;;1.30;;
3149;SDS011;32503;47.748;8.960;2023-09-18T10:10:27;2.80;;;1.03;;
3149;SDS011;32503;47.748;8.960;2023-09-18T10:12:57;1.20;;;1.10;;
3149;SDS011;32503;47.748;8.960;2023-09-18T10:15:27;7.00;;;1.60;;
3149;SDS011;32503;47.748;8.960;2023-09-18T10:17:56;1.20;;;1.10;;
3149;SDS011;32503;47.748;8.960;2023-09-18T10:20:24;2.20;;;1.07;;
3149;SDS011;32503;47.748;8.960;2023-09-18T10:22:52;2.90;;;1.57;;
3149;SDS011;32503;47.748;8.960;2023-09-18T10:25:20;3.30;;;1.50;;
3149;SDS011;32503;47.748;8.960;2023-09-18T10:27:51;1.37;;;1.27;;
3149;SDS011;32503;47.748;8.960;2023-09-18T10:30:19;3.77;;;1.70;;
3149;SDS011;32503;47.748;8.960;2023-09-18T10:32:48;1.60;;;1.50;;
3149;SDS011;32503;47.748;8.960;2023-09-18T10:35:15;1.77;;;1.67;;
3149;SDS011;32503;47.748;8.960;2023-09-18T10:37:45;1.37;;;1.27;;
3149;SDS011;32503;47.748;8.960;2023-09-18T10:40:12;1.80;;;1.40;;
3149;SDS011;32503;47.748;8.960;2023-09-18T10:42:39;1.67;;;1.40;;
3149;SDS011;32503;47.748;8.960;2023-09-18T10:45:09;1.67;;;1.57;;
3149;SDS011;32503;47.748;8.960;2023-09-18T10:47:37;1.57;;;1.47;;
3149;SDS011;32503;47.748;8.960;2023-09-18T10:50:05;1.33;;;1.23;;
3149;SDS011;32503;47.748;8.960;2023-09-18T10:52:33;1.40;;;1.20;;
3149;SDS011;32503;47.748;8.960;2023-09-18T10:55:00;1.43;;;1.33;;
3149;SDS011;32503;47.748;8.960;2023-09-18T10:57:32;1.30;;;1.20;;
3149;SDS011;32503;47.748;8.960;2023-09-18T10:59:59;1.30;;;1.10;;
3149;SDS011;32503;47.748;8.960;2023-09-18T11:02:28;1.73;;;1.23;;
3149;SDS011;32503;47.748;8.960;2023-09-18T11:04:55;1.40;;;1.07;;
3149;SDS011;32503;47.748;8.960;2023-09-18T11:07:22;1.30;;;1.20;;
3149;SDS011;32503;47.748;8.960;2023-09-18T11:09:50;1.10;;;1.00;;
3149;SDS011;32503;47.748;8.960;2023-09-18T11:12:17;2.40;;;1.27;;
3149;SDS011;32503;47.748;8.960;2023-09-18T11:14:47;1.40;;;1.30;;
3149;SDS011;32503;47.748;8.960;2023-09-18T11:17:34;7.77;;;2.00;;
3149;SDS011;32503;47.748;8.960;2023-09-18T11:20:08;1.87;;;1.20;;
3149;SDS011;32503;47.748;8.960;2023-09-18T11:22:38;1.23;;;1.13;;
3149;SDS011;32503;47.748;8.960;2023-09-18T11:27:55;1.43;;;1.33;;
3149;SDS011;32503;47.748;8.960;2023-09-18T11:30:22;2.10;;;1.20;;
3149;SDS011;32503;47.748;8.960;2023-09-18T11:32:50;1.53;;;0.90;;
3149;SDS011;32503;47.748;8.960;2023-09-18T11:35:17;1.10;;;1.00;;
3149;SDS011;32503;47.748;8.960;2023-09-18T11:37:45;2.00;;;0.90;;
3149;SDS011;32503;47.748;8.960;2023-09-18T11:40:26;1.47;;;1.37;;
3149;SDS011;32503;47.748;8.960;2023-09-18T11:45:50;1.20;;;1.10;;
3149;SDS011;32503;47.748;8.960;2023-09-18T11:48:20;1.33;;;1.23;;
3149;SDS011;32503;47.748;8.960;2023-09-18T11:50:51;1.10;;;1.00;;
3149;SDS011;32503;47.748;8.960;2023-09-18T11:53:19;1.03;;;0.93;;
3149;SDS011;32503;47.748;8.960;2023-09-18T11:55:46;1.40;;;1.20;;
3149;SDS011;32503;47.748;8.960;2023-09-18T11:58:13;1.40;;;1.30;;
3149;SDS011;32503;47.748;8.960;2023-09-18T12:00:40;1.20;;;1.10;;
3149;SDS011;32503;47.748;8.960;2023-09-18T12:03:14;1.13;;;1.03;;
3149;SDS011;32503;47.748;8.960;2023-09-18T12:05:51;1.70;;;1.60;;
3149;SDS011;32503;47.748;8.960;2023-09-18T12:08:19;1.73;;;1.20;;
3149;SDS011;32503;47.748;8.960;2023-09-18T12:10:48;1.03;;;0.97;;
3149;SDS011;32503;47.748;8.960;2023-09-18T12:13:15;4.67;;;3.57;;
3149;SDS011;32503;47.748;8.960;2023-09-18T12:15:42;1.77;;;0.93;;
3149;SDS011;32503;47.748;8.960;2023-09-18T12:18:10;0.80;;;0.80;;
3149;SDS011;32503;47.748;8.960;2023-09-18T12:20:38;1.00;;;0.90;;
3149;SDS011;32503;47.748;8.960;2023-09-18T12:23:12;0.90;;;0.80;;
3149;SDS011;32503;47.748;8.960;2023-09-18T12:25:39;2.57;;;1.33;;
3149;SDS011;32503;47.748;8.960;2023-09-18T12:28:06;1.50;;;1.20;;
3149;SDS011;32503;47.748;8.960;2023-09-18T12:30:33;1.83;;;0.60;;
3149;SDS011;32503;47.748;8.960;2023-09-18T12:33:00;1.00;;;0.80;;
3149;SDS011;32503;47.748;8.960;2023-09-18T12:35:28;1.27;;;1.00;;
3149;SDS011;32503;47.748;8.960;2023-09-18T12:37:56;1.10;;;0.90;;
3149;SDS011;32503;47.748;8.960;2023-09-18T12:40:25;2.43;;;0.93;;
3149;SDS011;32503;47.748;8.960;2023-09-18T12:42:53;0.80;;;0.70;;
3149;SDS011;32503;47.748;8.960;2023-09-18T12:45:20;1.00;;;0.90;;
3149;SDS011;32503;47.748;8.960;2023-09-18T12:47:48;1.47;;;0.73;;
3149;SDS011;32503;47.748;8.960;2023-09-18T12:50:15;1.10;;;1.00;;
3149;SDS011;32503;47.748;8.960;2023-09-18T12:52:42;1.17;;;1.07;;
3149;SDS011;32503;47.748;8.960;2023-09-18T12:55:19;1.50;;;0.80;;
3149;SDS011;32503;47.748;8.960;2023-09-18T12:57:48;2.50;;;1.00;;
3149;SDS011;32503;47.748;8.960;2023-09-18T13:00:16;2.10;;;0.90;;
3149;SDS011;32503;47.748;8.960;2023-09-18T13:02:46;2.60;;;0.90;;
3149;SDS011;32503;47.748;8.960;2023-09-18T13:05:17;1.27;;;1.17;;
3149;SDS011;32503;47.748;8.960;2023-09-18T13:07:46;1.20;;;0.97;;
3149;SDS011;32503;47.748;8.960;2023-09-18T13:10:13;1.00;;;0.90;;
3149;SDS011;32503;47.748;8.960;2023-09-18T13:12:41;0.93;;;0.87;;
3149;SDS011;32503;47.748;8.960;2023-09-18T13:15:11;1.47;;;1.20;;
3149;SDS011;32503;47.748;8.960;2023-09-18T13:17:39;1.10;;;1.00;;
3149;SDS011;32503;47.748;8.960;2023-09-18T13:20:11;1.10;;;1.00;;
3149;SDS011;32503;47.748;8.960;2023-09-18T13:22:40;1.03;;;0.93;;
3149;SDS011;32503;47.748;8.960;2023-09-18T13:25:08;1.63;;;1.33;;
3149;SDS011;32503;47.748;8.960;2023-09-18T13:27:36;1.03;;;0.93;;
3149;SDS011;32503;47.748;8.960;2023-09-18T13:30:03;1.20;;;1.00;;
3149;SDS011;32503;47.748;8.960;2023-09-18T13:32:35;2.40;;;1.10;;
3149;SDS011;32503;47.748;8.960;2023-09-18T13:35:02;1.30;;;1.20;;
3149;SDS011;32503;47.748;8.960;2023-09-18T13:37:31;0.90;;;0.90;;
3149;SDS011;32503;47.748;8.960;2023-09-18T13:39:58;0.83;;;0.80;;
3149;SDS011;32503;47.748;8.960;2023-09-18T13:42:27;0.80;;;0.80;;
3149;SDS011;32503;47.748;8.960;2023-09-18T13:44:56;0.80;;;0.80;;
3149;SDS011;32503;47.748;8.960;2023-09-18T13:47:24;0.83;;;0.83;;
3149;SDS011;32503;47.748;8.960;2023-09-18T13:49:52;1.73;;;0.90;;
3149;SDS011;32503;47.748;8.960;2023-09-18T13:52:21;1.27;;;1.00;;
3149;SDS011;32503;47.748;8.960;2023-09-18T13:54:48;1.33;;;0.80;;
3149;SDS011;32503;47.748;8.960;2023-09-18T13:57:17;1.03;;;0.80;;
3149;SDS011;32503;47.748;8.960;2023-09-18T13:59:44;1.10;;;1.00;;
3149;SDS011;32503;47.748;8.960;2023-09-18T14:02:11;1.77;;;1.00;;
3149;SDS011;32503;47.748;8.960;2023-09-18T14:04:38;0.80;;;0.80;;
3149;SDS011;32503;47.748;8.960;2023-09-18T14:07:07;1.13;;;0.90;;
3149;SDS011;32503;47.748;8.960;2023-09-18T14:09:34;1.63;;;1.00;;
3149;SDS011;32503;47.748;8.960;2023-09-18T14:12:01;0.97;;;0.90;;
3149;SDS011;32503;47.748;8.960;2023-09-18T14:14:28;1.00;;;0.90;;
3149;SDS011;32503;47.748;8.960;2023-09-18T14:16:55;2.10;;;1.10;;
3149;SDS011;32503;47.748;8.960;2023-09-18T14:19:22;0.90;;;0.90;;
3149;SDS011;32503;47.748;8.960;2023-09-18T14:21:49;1.83;;;0.90;;
3149;SDS011;32503;47.748;8.960;2023-09-18T14:24:18;1.43;;;1.10;;
3149;SDS011;32503;47.748;8.960;2023-09-18T14:26:49;0.80;;;0.73;;
3149;SDS011;32503;47.748;8.960;2023-09-18T14:29:16;1.00;;;0.90;;
3149;SDS011;32503;47.748;8.960;2023-09-18T14:31:43;0.90;;;0.80;;
3149;SDS011;32503;47.748;8.960;2023-09-18T14:34:10;1.30;;;0.90;;
3149;SDS011;32503;47.748;8.960;2023-09-18T14:36:37;0.80;;;0.80;;
3149;SDS011;32503;47.748;8.960;2023-09-18T14:39:05;1.13;;;1.03;;
3149;SDS011;32503;47.748;8.960;2023-09-18T14:41:35;1.10;;;0.70;;
3149;SDS011;32503;47.748;8.960;2023-09-18T14:44:02;1.10;;;1.00;;
3149;SDS011;32503;47.748;8.960;2023-09-18T14:46:29;0.77;;;0.77;;
3149;SDS011;32503;47.748;8.960;2023-09-18T14:48:56;0.80;;;0.70;;
3149;SDS011;32503;47.748;8.960;2023-09-18T14:51:23;1.20;;;0.90;;
3149;SDS011;32503;47.748;8.960;2023-09-18T14:53:50;1.10;;;0.93;;
3149;SDS011;32503;47.748;8.960;2023-09-18T14:56:17;0.97;;;0.80;;
3149;SDS011;32503;47.748;8.960;2023-09-18T14:58:45;0.80;;;0.70;;
3149;SDS011;32503;47.748;8.960;2023-09-18T15:01:12;0.80;;;0.70;;
3149;SDS011;32503;47.748;8.960;2023-09-18T15:03:39;1.00;;;0.93;;
3149;SDS011;32503;47.748;8.960;2023-09-18T15:06:06;1.47;;;0.80;;
3149;SDS011;32503;47.748;8.960;2023-09-18T15:08:33;1.70;;;1.13;;
3149;SDS011;32503;47.748;8.960;2023-09-18T15:11:00;1.20;;;1.10;;
3149;SDS011;32503;47.748;8.960;2023-09-18T15:13:28;0.93;;;0.70;;